Terminal Aerodrome Forecast
Issued by NWS

Home | Current Version | Previous Version | Graphics & Text | Print | Product List | Glossary On
Versions: 1 2 3 4 5 6 7 8 9 10 11 12 13 14 15 16 17 18 19 20
000
FTUS43 KGRB 232300
TAFAUW
TAF
KAUW 232325Z 2400/2424 25010KT P6SM SCT025 BKN040
      TEMPO 2401/2403 BKN025
     FM240300 28008KT P6SM SCT018 BKN025
     FM240600 28006KT 6SM BR BKN018 BKN025
     FM241500 30008KT P6SM SCT018 BKN025
      AMD LTD TO CLD VIS AND WIND 2403/2411=

USA.gov is the U.S. government's official web portal to all federal, state and local government web resources and services.